sensor_id;sensor_type;location;lat;lon;timestamp;pressure;altitude;pressure_sealevel;temperature;humidity
49515;BME280;35415;47.870;16.058;2022-08-19T00:01:20;96676.34;;;20.90;63.94
49515;BME280;35415;47.870;16.058;2022-08-19T00:03:47;96671.56;;;20.87;64.83
49515;BME280;35415;47.870;16.058;2022-08-19T00:06:15;96670.31;;;20.84;64.42
49515;BME280;35415;47.870;16.058;2022-08-19T00:08:42;96666.31;;;20.82;64.50
49515;BME280;35415;47.870;16.058;2022-08-19T00:11:10;96660.75;;;20.78;64.15
49515;BME280;35415;47.870;16.058;2022-08-19T00:13:38;96647.19;;;20.66;64.73
49515;BME280;35415;47.870;16.058;2022-08-19T00:16:06;96659.53;;;20.76;64.81
49515;BME280;35415;47.870;16.058;2022-08-19T00:18:35;96659.88;;;20.74;64.78
49515;BME280;35415;47.870;16.058;2022-08-19T00:21:03;96653.31;;;20.63;65.02
49515;BME280;35415;47.870;16.058;2022-08-19T00:23:33;96635.56;;;20.57;64.70
49515;BME280;35415;47.870;16.058;2022-08-19T00:26:02;96658.53;;;20.68;65.11
49515;BME280;35415;47.870;16.058;2022-08-19T00:28:29;96653.31;;;20.63;65.42
49515;BME280;35415;47.870;16.058;2022-08-19T00:30:57;96650.13;;;20.61;65.29
49515;BME280;35415;47.870;16.058;2022-08-19T00:33:24;96658.69;;;20.59;65.29
49515;BME280;35415;47.870;16.058;2022-08-19T00:35:54;96657.78;;;20.55;65.38
49515;BME280;35415;47.870;16.058;2022-08-19T00:38:22;96654.59;;;20.53;66.24
49515;BME280;35415;47.870;16.058;2022-08-19T00:40:49;96646.75;;;20.39;65.78
49515;BME280;35415;47.870;16.058;2022-08-19T00:43:19;96668.03;;;20.46;65.90
49515;BME280;35415;47.870;16.058;2022-08-19T00:45:47;96658.25;;;20.45;66.17
49515;BME280;35415;47.870;16.058;2022-08-19T00:48:16;96655.44;;;20.41;65.90
49515;BME280;35415;47.870;16.058;2022-08-19T00:50:44;96661.22;;;20.40;66.41
49515;BME280;35415;47.870;16.058;2022-08-19T00:53:16;96662.69;;;20.37;66.49
49515;BME280;35415;47.870;16.058;2022-08-19T00:55:48;96664.53;;;20.33;66.85
49515;BME280;35415;47.870;16.058;2022-08-19T00:58:18;96653.75;;;20.25;66.99
49515;BME280;35415;47.870;16.058;2022-08-19T01:00:46;96657.59;;;20.24;67.09
49515;BME280;35415;47.870;16.058;2022-08-19T01:03:17;96678.31;;;20.25;67.05
49515;BME280;35415;47.870;16.058;2022-08-19T01:05:45;96680.84;;;20.18;67.21
49515;BME280;35415;47.870;16.058;2022-08-19T01:08:16;96692.56;;;20.18;67.07
49515;BME280;35415;47.870;16.058;2022-08-19T01:10:47;96689.38;;;20.16;67.56
49515;BME280;35415;47.870;16.058;2022-08-19T01:13:16;96684.13;;;20.11;67.94
49515;BME280;35415;47.870;16.058;2022-08-19T01:15:46;96680.50;;;20.07;67.66
49515;BME280;35415;47.870;16.058;2022-08-19T01:18:17;96677.31;;;20.05;68.11
49515;BME280;35415;47.870;16.058;2022-08-19T01:20:45;96682.69;;;20.01;68.47
49515;BME280;35415;47.870;16.058;2022-08-19T01:23:15;96684.97;;;19.99;68.04
49515;BME280;35415;47.870;16.058;2022-08-19T01:25:45;96677.78;;;19.95;68.61
49515;BME280;35415;47.870;16.058;2022-08-19T01:28:18;96688.25;;;19.93;68.40
49515;BME280;35415;47.870;16.058;2022-08-19T01:30:45;96673.78;;;19.80;68.66
49515;BME280;35415;47.870;16.058;2022-08-19T01:33:14;96681.19;;;19.79;68.99
49515;BME280;35415;47.870;16.058;2022-08-19T01:35:41;96672.44;;;19.74;69.32
49515;BME280;35415;47.870;16.058;2022-08-19T01:38:18;96684.03;;;19.71;69.29
49515;BME280;35415;47.870;16.058;2022-08-19T01:40:47;96675.28;;;19.65;69.56
49515;BME280;35415;47.870;16.058;2022-08-19T01:43:15;96673.22;;;19.62;69.77
49515;BME280;35415;47.870;16.058;2022-08-19T01:45:42;96667.19;;;19.57;69.97
49515;BME280;35415;47.870;16.058;2022-08-19T01:48:09;96664.34;;;19.53;69.90
49515;BME280;35415;47.870;16.058;2022-08-19T01:50:37;96683.44;;;19.53;69.91
49515;BME280;35415;47.870;16.058;2022-08-19T01:53:06;96688.88;;;19.53;70.26
49515;BME280;35415;47.870;16.058;2022-08-19T01:55:36;96699.69;;;19.49;70.18
49515;BME280;35415;47.870;16.058;2022-08-19T01:58:05;96683.97;;;19.46;70.33
49515;BME280;35415;47.870;16.058;2022-08-19T02:00:34;96671.81;;;19.44;70.26
49515;BME280;35415;47.870;16.058;2022-08-19T02:03:02;96678.75;;;19.41;70.29
49515;BME280;35415;47.870;16.058;2022-08-19T02:05:30;96685.66;;;19.39;70.63
49515;BME280;35415;47.870;16.058;2022-08-19T02:07:57;96687.59;;;19.38;70.68
49515;BME280;35415;47.870;16.058;2022-08-19T02:10:24;96669.09;;;19.32;70.31
49515;BME280;35415;47.870;16.058;2022-08-19T02:12:51;96676.44;;;19.31;70.87
49515;BME280;35415;47.870;16.058;2022-08-19T02:15:20;96683.03;;;19.30;70.97
49515;BME280;35415;47.870;16.058;2022-08-19T02:17:49;96681.66;;;19.24;70.94
49515;BME280;35415;47.870;16.058;2022-08-19T02:20:16;96674.84;;;19.18;71.01
49515;BME280;35415;47.870;16.058;2022-08-19T02:22:44;96677.56;;;19.18;71.49
49515;BME280;35415;47.870;16.058;2022-08-19T02:25:12;96673.03;;;19.22;71.84
49515;BME280;35415;47.870;16.058;2022-08-19T02:27:41;96654.03;;;19.13;71.00
49515;BME280;35415;47.870;16.058;2022-08-19T02:30:12;96657.69;;;19.17;70.89
49515;BME280;35415;47.870;16.058;2022-08-19T02:32:42;96661.56;;;19.16;71.46
49515;BME280;35415;47.870;16.058;2022-08-19T02:35:10;96671.84;;;19.11;71.71
49515;BME280;35415;47.870;16.058;2022-08-19T02:37:37;96660.16;;;19.10;71.72
49515;BME280;35415;47.870;16.058;2022-08-19T02:40:22;96656.53;;;19.06;71.80
49515;BME280;35415;47.870;16.058;2022-08-19T02:42:49;96647.88;;;19.04;71.61
49515;BME280;35415;47.870;16.058;2022-08-19T02:45:16;96646.03;;;18.96;71.73
49515;BME280;35415;47.870;16.058;2022-08-19T02:47:45;96656.13;;;18.96;71.76
49515;BME280;35415;47.870;16.058;2022-08-19T02:50:12;96656.28;;;18.99;71.74
49515;BME280;35415;47.870;16.058;2022-08-19T02:52:40;96656.59;;;18.98;71.99
49515;BME280;35415;47.870;16.058;2022-08-19T02:55:08;96666.38;;;18.99;71.28
49515;BME280;35415;47.870;16.058;2022-08-19T02:57:35;96658.88;;;18.96;71.99
49515;BME280;35415;47.870;16.058;2022-08-19T03:00:05;96676.22;;;18.91;71.85
49515;BME280;35415;47.870;16.058;2022-08-19T03:02:33;96657.25;;;18.82;72.03
49515;BME280;35415;47.870;16.058;2022-08-19T03:05:06;96671.56;;;18.91;71.85
49515;BME280;35415;47.870;16.058;2022-08-19T03:07:33;96674.19;;;18.88;72.38
49515;BME280;35415;47.870;16.058;2022-08-19T03:10:00;96681.56;;;18.87;72.40
49515;BME280;35415;47.870;16.058;2022-08-19T03:12:27;96657.31;;;18.74;72.04
49515;BME280;35415;47.870;16.058;2022-08-19T03:14:54;96665.88;;;18.84;72.57
49515;BME280;35415;47.870;16.058;2022-08-19T03:17:21;96658.84;;;18.83;72.41
49515;BME280;35415;47.870;16.058;2022-08-19T03:19:48;96668.47;;;18.81;72.20
49515;BME280;35415;47.870;16.058;2022-08-19T03:22:17;96664.16;;;18.80;72.44
49515;BME280;35415;47.870;16.058;2022-08-19T03:24:44;96667.19;;;18.78;72.41
49515;BME280;35415;47.870;16.058;2022-08-19T03:27:11;96661.97;;;18.73;72.58
49515;BME280;35415;47.870;16.058;2022-08-19T03:29:39;96664.25;;;18.71;72.55
49515;BME280;35415;47.870;16.058;2022-08-19T03:32:06;96663.78;;;18.69;72.41
49515;BME280;35415;47.870;16.058;2022-08-19T03:34:34;96672.75;;;18.70;72.77
49515;BME280;35415;47.870;16.058;2022-08-19T03:37:05;96668.78;;;18.67;72.82
49515;BME280;35415;47.870;16.058;2022-08-19T03:39:35;96675.00;;;18.68;72.71
49515;BME280;35415;47.870;16.058;2022-08-19T03:42:04;96669.91;;;18.66;72.61
49515;BME280;35415;47.870;16.058;2022-08-19T03:44:32;96668.31;;;18.65;72.92
49515;BME280;35415;47.870;16.058;2022-08-19T03:46:59;96663.97;;;18.64;72.90
49515;BME280;35415;47.870;16.058;2022-08-19T03:49:29;96662.88;;;18.65;72.72
49515;BME280;35415;47.870;16.058;2022-08-19T03:51:57;96655.19;;;18.58;72.79
49515;BME280;35415;47.870;16.058;2022-08-19T03:54:27;96662.06;;;18.65;72.88
49515;BME280;35415;47.870;16.058;2022-08-19T03:56:57;96660.75;;;18.62;72.66
49515;BME280;35415;47.870;16.058;2022-08-19T03:59:30;96673.75;;;18.65;72.94
49515;BME280;35415;47.870;16.058;2022-08-19T04:01:59;96680.31;;;18.64;73.05
49515;BME280;35415;47.870;16.058;2022-08-19T04:04:27;96694.75;;;18.65;73.84
49515;BME280;35415;47.870;16.058;2022-08-19T04:06:54;96705.31;;;18.66;72.82
49515;BME280;35415;47.870;16.058;2022-08-19T04:09:21;96708.84;;;18.67;72.76
49515;BME280;35415;47.870;16.058;2022-08-19T04:11:50;96716.66;;;18.68;73.06
49515;BME280;35415;47.870;16.058;2022-08-19T04:14:22;96718.72;;;18.71;72.84
49515;BME280;35415;47.870;16.058;2022-08-19T04:16:51;96709.47;;;18.63;71.99
49515;BME280;35415;47.870;16.058;2022-08-19T04:19:19;96724.16;;;18.71;72.02
49515;BME280;35415;47.870;16.058;2022-08-19T04:21:49;96738.38;;;18.77;71.96
49515;BME280;35415;47.870;16.058;2022-08-19T04:24:17;96743.94;;;18.80;72.00
49515;BME280;35415;47.870;16.058;2022-08-19T04:26:45;96744.44;;;18.82;72.24
49515;BME280;35415;47.870;16.058;2022-08-19T04:29:14;96748.75;;;18.83;72.16
49515;BME280;35415;47.870;16.058;2022-08-19T04:31:44;96740.25;;;18.85;72.07
49515;BME280;35415;47.870;16.058;2022-08-19T04:34:14;96747.28;;;18.86;72.07
49515;BME280;35415;47.870;16.058;2022-08-19T04:36:45;96751.59;;;18.87;71.78
49515;BME280;35415;47.870;16.058;2022-08-19T04:39:14;96754.34;;;18.87;72.14
49515;BME280;35415;47.870;16.058;2022-08-19T04:41:42;96759.78;;;18.87;72.31
49515;BME280;35415;47.870;16.058;2022-08-19T04:44:27;96763.31;;;18.87;72.18
49515;BME280;35415;47.870;16.058;2022-08-19T04:46:57;96762.84;;;18.85;72.11
49515;BME280;35415;47.870;16.058;2022-08-19T04:49:24;96743.25;;;18.71;72.42
49515;BME280;35415;47.870;16.058;2022-08-19T04:51:53;96771.03;;;18.85;72.18
49515;BME280;35415;47.870;16.058;2022-08-19T04:54:21;96770.91;;;18.82;72.17
49515;BME280;35415;47.870;16.058;2022-08-19T04:56:50;96787.72;;;18.84;72.35
49515;BME280;35415;47.870;16.058;2022-08-19T04:59:19;96778.72;;;18.83;72.50
49515;BME280;35415;47.870;16.058;2022-08-19T05:01:47;96783.72;;;18.81;72.44
49515;BME280;35415;47.870;16.058;2022-08-19T05:04:18;96789.97;;;18.82;72.32
49515;BME280;35415;47.870;16.058;2022-08-19T05:06:46;96789.16;;;18.81;72.67
49515;BME280;35415;47.870;16.058;2022-08-19T05:09:14;96786.75;;;18.80;72.33
49515;BME280;35415;47.870;16.058;2022-08-19T05:11:42;96793.78;;;18.81;72.70
49515;BME280;35415;47.870;16.058;2022-08-19T05:14:10;96796.53;;;18.81;72.44
49515;BME280;35415;47.870;16.058;2022-08-19T05:16:39;96798.44;;;18.80;72.10
49515;BME280;35415;47.870;16.058;2022-08-19T05:19:06;96800.06;;;18.81;72.45
49515;BME280;35415;47.870;16.058;2022-08-19T05:21:52;96809.84;;;18.82;72.40
49515;BME280;35415;47.870;16.058;2022-08-19T05:24:36;96826.31;;;18.86;72.38
49515;BME280;35415;47.870;16.058;2022-08-19T05:27:04;96814.28;;;18.87;72.38
49515;BME280;35415;47.870;16.058;2022-08-19T05:29:32;96823.59;;;18.86;71.88
49515;BME280;35415;47.870;16.058;2022-08-19T05:32:01;96826.13;;;18.91;72.55
49515;BME280;35415;47.870;16.058;2022-08-19T05:34:28;96831.22;;;18.92;72.21
49515;BME280;35415;47.870;16.058;2022-08-19T05:36:58;96834.09;;;18.96;72.49
49515;BME280;35415;47.870;16.058;2022-08-19T05:39:29;96803.59;;;18.82;71.95
49515;BME280;35415;47.870;16.058;2022-08-19T05:41:58;96828.44;;;19.01;71.77
49515;BME280;35415;47.870;16.058;2022-08-19T05:44:28;96810.22;;;18.93;71.93
49515;BME280;35415;47.870;16.058;2022-08-19T05:46:57;96818.81;;;19.04;71.69
49515;BME280;35415;47.870;16.058;2022-08-19T05:49:26;96825.31;;;19.11;71.61
49515;BME280;35415;47.870;16.058;2022-08-19T05:51:53;96839.88;;;19.15;71.83
49515;BME280;35415;47.870;16.058;2022-08-19T05:54:24;96827.09;;;19.07;71.49
49515;BME280;35415;47.870;16.058;2022-08-19T05:56:52;96851.03;;;19.22;71.72
49515;BME280;35415;47.870;16.058;2022-08-19T05:59:20;96852.75;;;19.27;71.32
49515;BME280;35415;47.870;16.058;2022-08-19T06:01:48;96852.75;;;19.27;71.37
49515;BME280;35415;47.870;16.058;2022-08-19T06:04:17;96857.53;;;19.30;71.00
49515;BME280;35415;47.870;16.058;2022-08-19T06:06:45;96885.09;;;19.37;70.67
49515;BME280;35415;47.870;16.058;2022-08-19T06:09:13;96888.75;;;19.41;70.60
49515;BME280;35415;47.870;16.058;2022-08-19T06:11:43;96885.69;;;19.43;70.10
49515;BME280;35415;47.870;16.058;2022-08-19T06:14:14;96891.25;;;19.46;70.76
49515;BME280;35415;47.870;16.058;2022-08-19T06:16:42;96890.13;;;19.47;70.08
49515;BME280;35415;47.870;16.058;2022-08-19T06:19:11;96893.66;;;19.48;70.07
49515;BME280;35415;47.870;16.058;2022-08-19T06:21:40;96885.69;;;19.43;70.48
49515;BME280;35415;47.870;16.058;2022-08-19T06:24:10;96892.22;;;19.50;72.42
49515;BME280;35415;47.870;16.058;2022-08-19T06:26:41;96901.47;;;19.58;73.59
49515;BME280;35415;47.870;16.058;2022-08-19T06:29:10;96905.00;;;19.59;74.66
49515;BME280;35415;47.870;16.058;2022-08-19T06:31:41;96903.75;;;19.56;74.57
49515;BME280;35415;47.870;16.058;2022-08-19T06:34:09;96899.53;;;19.59;75.23
49515;BME280;35415;47.870;16.058;2022-08-19T06:36:39;96890.56;;;19.58;75.84
49515;BME280;35415;47.870;16.058;2022-08-19T06:39:09;96885.44;;;19.57;75.09
49515;BME280;35415;47.870;16.058;2022-08-19T06:41:39;96866.38;;;19.48;75.38
49515;BME280;35415;47.870;16.058;2022-08-19T06:44:08;96875.00;;;19.59;76.33
49515;BME280;35415;47.870;16.058;2022-08-19T06:46:36;96869.19;;;19.60;75.99
49515;BME280;35415;47.870;16.058;2022-08-19T06:49:03;96855.44;;;19.57;76.42
49515;BME280;35415;47.870;16.058;2022-08-19T06:51:30;96870.13;;;19.64;77.07
49515;BME280;35415;47.870;16.058;2022-08-19T06:53:59;96877.31;;;19.69;77.12
49515;BME280;35415;47.870;16.058;2022-08-19T06:56:30;96878.56;;;19.71;76.96
49515;BME280;35415;47.870;16.058;2022-08-19T06:58:59;96869.38;;;19.76;77.98
49515;BME280;35415;47.870;16.058;2022-08-19T07:01:27;96886.31;;;19.81;78.27
49515;BME280;35415;47.870;16.058;2022-08-19T07:03:54;96882.94;;;19.85;78.86
49515;BME280;35415;47.870;16.058;2022-08-19T07:06:21;96883.41;;;19.87;78.62
49515;BME280;35415;47.870;16.058;2022-08-19T07:08:48;96869.75;;;19.87;79.13
49515;BME280;35415;47.870;16.058;2022-08-19T07:11:17;96875.56;;;19.97;78.89
49515;BME280;35415;47.870;16.058;2022-08-19T07:13:46;96864.00;;;20.00;78.43
49515;BME280;35415;47.870;16.058;2022-08-19T07:16:16;96857.84;;;20.03;78.58
49515;BME280;35415;47.870;16.058;2022-08-19T07:18:46;96816.97;;;19.95;77.32
49515;BME280;35415;47.870;16.058;2022-08-19T07:21:16;96815.53;;;20.09;77.25
49515;BME280;35415;47.870;16.058;2022-08-19T07:23:43;96803.91;;;20.12;77.75
49515;BME280;35415;47.870;16.058;2022-08-19T07:26:16;96815.78;;;20.17;76.54
49515;BME280;35415;47.870;16.058;2022-08-19T07:28:45;96815.53;;;20.22;77.14
49515;BME280;35415;47.870;16.058;2022-08-19T07:31:14;96824.75;;;20.29;76.70
49515;BME280;35415;47.870;16.058;2022-08-19T07:33:44;96821.94;;;20.38;76.96
49515;BME280;35415;47.870;16.058;2022-08-19T07:36:16;96803.84;;;20.46;76.54
49515;BME280;35415;47.870;16.058;2022-08-19T07:38:46;96808.41;;;20.54;75.91
49515;BME280;35415;47.870;16.058;2022-08-19T07:41:16;96807.47;;;20.62;75.47
49515;BME280;35415;47.870;16.058;2022-08-19T07:43:43;96803.84;;;20.70;74.97
49515;BME280;35415;47.870;16.058;2022-08-19T07:46:12;96808.81;;;20.80;75.12
49515;BME280;35415;47.870;16.058;2022-08-19T07:48:41;96810.53;;;20.85;75.19
49515;BME280;35415;47.870;16.058;2022-08-19T07:51:10;96826.53;;;20.98;74.54
49515;BME280;35415;47.870;16.058;2022-08-19T07:53:41;96848.28;;;21.07;73.29
49515;BME280;35415;47.870;16.058;2022-08-19T07:56:10;96847.81;;;21.17;73.08
49515;BME280;35415;47.870;16.058;2022-08-19T07:58:42;96844.16;;;21.25;72.01
49515;BME280;35415;47.870;16.058;2022-08-19T08:01:13;96826.25;;;21.28;72.11
49515;BME280;35415;47.870;16.058;2022-08-19T08:03:41;96838.16;;;21.48;70.72
49515;BME280;35415;47.870;16.058;2022-08-19T08:06:25;96831.03;;;21.59;70.34
49515;BME280;35415;47.870;16.058;2022-08-19T08:09:14;96836.59;;;21.62;70.61
49515;BME280;35415;47.870;16.058;2022-08-19T08:11:50;96854.31;;;21.81;70.13
49515;BME280;35415;47.870;16.058;2022-08-19T08:14:18;96826.03;;;21.77;69.14
49515;BME280;35415;47.870;16.058;2022-08-19T08:16:48;96847.34;;;21.99;69.28
49515;BME280;35415;47.870;16.058;2022-08-19T08:19:17;96846.69;;;22.02;67.23
49515;BME280;35415;47.870;16.058;2022-08-19T08:21:46;96865.19;;;22.21;68.08
49515;BME280;35415;47.870;16.058;2022-08-19T08:24:16;96858.22;;;22.24;66.08
49515;BME280;35415;47.870;16.058;2022-08-19T08:26:43;96858.38;;;22.31;66.58
49515;BME280;35415;47.870;16.058;2022-08-19T08:29:10;96866.16;;;22.44;65.42
49515;BME280;35415;47.870;16.058;2022-08-19T08:31:38;96883.66;;;22.56;64.97
49515;BME280;35415;47.870;16.058;2022-08-19T08:34:05;96887.13;;;22.68;65.01
49515;BME280;35415;47.870;16.058;2022-08-19T08:36:32;96870.56;;;22.65;66.85
49515;BME280;35415;47.870;16.058;2022-08-19T08:39:05;96889.84;;;22.84;65.50
49515;BME280;35415;47.870;16.058;2022-08-19T08:41:40;96865.53;;;22.83;67.14
49515;BME280;35415;47.870;16.058;2022-08-19T08:44:17;96883.28;;;23.04;67.25
49515;BME280;35415;47.870;16.058;2022-08-19T08:46:48;96870.06;;;23.10;67.74
49515;BME280;35415;47.870;16.058;2022-08-19T08:49:24;96862.50;;;23.23;65.46
49515;BME280;35415;47.870;16.058;2022-08-19T08:51:59;96846.25;;;23.33;66.10
49515;BME280;35415;47.870;16.058;2022-08-19T08:54:32;96840.69;;;23.49;66.94
49515;BME280;35415;47.870;16.058;2022-08-19T08:57:03;96847.19;;;23.57;63.32
49515;BME280;35415;47.870;16.058;2022-08-19T08:59:34;96857.34;;;23.76;62.93
49515;BME280;35415;47.870;16.058;2022-08-19T09:02:02;96851.75;;;23.91;63.00
49515;BME280;35415;47.870;16.058;2022-08-19T09:04:29;96846.47;;;24.02;58.98
49515;BME280;35415;47.870;16.058;2022-08-19T09:07:16;96834.22;;;24.19;61.77
49515;BME280;35415;47.870;16.058;2022-08-19T09:09:50;96834.16;;;24.38;60.94
49515;BME280;35415;47.870;16.058;2022-08-19T09:12:25;96826.56;;;24.54;60.02
49515;BME280;35415;47.870;16.058;2022-08-19T09:15:02;96832.34;;;24.72;58.43
49515;BME280;35415;47.870;16.058;2022-08-19T09:17:31;96823.94;;;24.88;58.14
49515;BME280;35415;47.870;16.058;2022-08-19T09:20:11;96795.72;;;24.95;57.82
49515;BME280;35415;47.870;16.058;2022-08-19T09:22:42;96819.44;;;25.33;58.42
49515;BME280;35415;47.870;16.058;2022-08-19T09:25:12;96818.06;;;25.49;55.95
49515;BME280;35415;47.870;16.058;2022-08-19T09:27:42;96821.03;;;25.67;55.94
49515;BME280;35415;47.870;16.058;2022-08-19T09:30:14;96823.97;;;25.82;55.82
49515;BME280;35415;47.870;16.058;2022-08-19T09:32:41;96833.13;;;25.89;58.33
49515;BME280;35415;47.870;16.058;2022-08-19T09:35:09;96806.75;;;25.92;54.44
49515;BME280;35415;47.870;16.058;2022-08-19T09:37:36;96830.63;;;26.18;54.36
49515;BME280;35415;47.870;16.058;2022-08-19T09:40:04;96808.56;;;26.18;54.55
49515;BME280;35415;47.870;16.058;2022-08-19T09:42:32;96813.09;;;26.36;54.50
49515;BME280;35415;47.870;16.058;2022-08-19T09:45:00;96810.78;;;26.42;54.15
49515;BME280;35415;47.870;16.058;2022-08-19T09:47:28;96796.63;;;26.47;54.82
49515;BME280;35415;47.870;16.058;2022-08-19T09:49:55;96759.63;;;26.52;56.57
49515;BME280;35415;47.870;16.058;2022-08-19T09:52:23;96797.91;;;26.57;55.71
49515;BME280;35415;47.870;16.058;2022-08-19T09:54:51;96793.84;;;26.44;53.98
49515;BME280;35415;47.870;16.058;2022-08-19T09:57:19;96812.13;;;26.66;56.13
49515;BME280;35415;47.870;16.058;2022-08-19T09:59:46;96805.06;;;26.68;55.52
49515;BME280;35415;47.870;16.058;2022-08-19T10:02:15;96799.94;;;26.71;53.19
49515;BME280;35415;47.870;16.058;2022-08-19T10:04:43;96805.13;;;26.76;50.00
49515;BME280;35415;47.870;16.058;2022-08-19T10:07:29;96788.94;;;26.74;50.44
49515;BME280;35415;47.870;16.058;2022-08-19T10:09:56;96803.16;;;26.80;50.45
49515;BME280;35415;47.870;16.058;2022-08-19T10:12:23;96813.44;;;26.83;49.18
49515;BME280;35415;47.870;16.058;2022-08-19T10:14:50;96816.59;;;26.85;48.54
49515;BME280;35415;47.870;16.058;2022-08-19T10:17:21;96802.41;;;26.86;47.82
49515;BME280;35415;47.870;16.058;2022-08-19T10:19:48;96803.63;;;26.89;47.57
49515;BME280;35415;47.870;16.058;2022-08-19T10:22:15;96805.63;;;26.92;47.14
49515;BME280;35415;47.870;16.058;2022-08-19T10:24:42;96810.75;;;26.97;46.85
49515;BME280;35415;47.870;16.058;2022-08-19T10:27:09;96815.56;;;27.04;46.12
49515;BME280;35415;47.870;16.058;2022-08-19T10:29:38;96829.41;;;27.11;47.71
49515;BME280;35415;47.870;16.058;2022-08-19T10:32:07;96829.47;;;27.21;49.06
49515;BME280;35415;47.870;16.058;2022-08-19T10:34:37;96822.41;;;27.27;48.26
49515;BME280;35415;47.870;16.058;2022-08-19T10:37:05;96811.78;;;27.37;47.40
49515;BME280;35415;47.870;16.058;2022-08-19T10:39:34;96806.31;;;27.47;48.30
49515;BME280;35415;47.870;16.058;2022-08-19T10:42:05;96797.66;;;27.56;48.42
49515;BME280;35415;47.870;16.058;2022-08-19T10:44:33;96785.44;;;27.57;48.00
49515;BME280;35415;47.870;16.058;2022-08-19T10:47:01;96787.03;;;27.65;47.48
49515;BME280;35415;47.870;16.058;2022-08-19T10:49:30;96803.66;;;27.72;47.27
49515;BME280;35415;47.870;16.058;2022-08-19T10:52:19;96811.56;;;27.74;45.95
49515;BME280;35415;47.870;16.058;2022-08-19T10:55:00;96795.34;;;27.65;46.11
49515;BME280;35415;47.870;16.058;2022-08-19T10:57:45;96803.28;;;27.74;45.30
49515;BME280;35415;47.870;16.058;2022-08-19T11:00:12;96796.53;;;27.71;45.74
49515;BME280;35415;47.870;16.058;2022-08-19T11:02:40;96803.22;;;27.70;44.38
49515;BME280;35415;47.870;16.058;2022-08-19T11:05:08;96798.47;;;27.60;45.35
49515;BME280;35415;47.870;16.058;2022-08-19T11:07:38;96817.09;;;27.74;44.96
49515;BME280;35415;47.870;16.058;2022-08-19T11:10:08;96815.13;;;27.74;46.02
49515;BME280;35415;47.870;16.058;2022-08-19T11:12:37;96800.47;;;27.63;45.71
49515;BME280;35415;47.870;16.058;2022-08-19T11:15:07;96811.13;;;27.68;46.04
49515;BME280;35415;47.870;16.058;2022-08-19T11:17:36;96811.16;;;27.75;45.58
49515;BME280;35415;47.870;16.058;2022-08-19T11:20:07;96817.09;;;27.74;46.30
49515;BME280;35415;47.870;16.058;2022-08-19T11:22:34;96828.94;;;27.81;45.94
49515;BME280;35415;47.870;16.058;2022-08-19T11:25:03;96832.47;;;27.78;46.09
49515;BME280;35415;47.870;16.058;2022-08-19T11:27:31;96834.84;;;27.80;46.37
49515;BME280;35415;47.870;16.058;2022-08-19T11:29:58;96819.47;;;27.75;47.11
49515;BME280;35415;47.870;16.058;2022-08-19T11:32:25;96805.25;;;27.80;46.99
49515;BME280;35415;47.870;16.058;2022-08-19T11:34:52;96780.38;;;27.84;47.49
49515;BME280;35415;47.870;16.058;2022-08-19T11:37:20;96802.88;;;27.86;46.52
49515;BME280;35415;47.870;16.058;2022-08-19T11:39:46;96815.50;;;27.87;45.29
49515;BME280;35415;47.870;16.058;2022-08-19T11:42:15;96805.66;;;27.86;45.86
49515;BME280;35415;47.870;16.058;2022-08-19T11:45:01;96818.72;;;27.89;44.28
49515;BME280;35415;47.870;16.058;2022-08-19T11:47:29;96808.81;;;27.88;45.29
49515;BME280;35415;47.870;16.058;2022-08-19T11:49:56;96802.47;;;27.87;45.72
49515;BME280;35415;47.870;16.058;2022-08-19T11:52:23;96807.66;;;27.96;45.24
49515;BME280;35415;47.870;16.058;2022-08-19T11:54:50;96796.59;;;27.93;44.63
49515;BME280;35415;47.870;16.058;2022-08-19T11:57:19;96813.97;;;27.97;45.77
49515;BME280;35415;47.870;16.058;2022-08-19T11:59:50;96815.16;;;27.96;45.65
49515;BME280;35415;47.870;16.058;2022-08-19T12:02:18;96818.72;;;27.96;45.82
49515;BME280;35415;47.870;16.058;2022-08-19T12:04:45;96829.75;;;27.93;46.12
49515;BME280;35415;47.870;16.058;2022-08-19T12:07:12;96836.88;;;27.94;45.72
49515;BME280;35415;47.870;16.058;2022-08-19T12:09:40;96839.63;;;27.90;45.88
49515;BME280;35415;47.870;16.058;2022-08-19T12:12:08;96803.22;;;27.70;46.01
49515;BME280;35415;47.870;16.058;2022-08-19T12:14:37;96833.28;;;27.82;46.20
49515;BME280;35415;47.870;16.058;2022-08-19T12:17:04;96838.00;;;27.78;45.57
49515;BME280;35415;47.870;16.058;2022-08-19T12:19:33;96844.31;;;27.75;46.57
49515;BME280;35415;47.870;16.058;2022-08-19T12:22:01;96857.72;;;27.70;46.02
49515;BME280;35415;47.870;16.058;2022-08-19T12:24:30;96869.94;;;27.65;47.06
49515;BME280;35415;47.870;16.058;2022-08-19T12:26:58;96865.56;;;27.61;47.38
49515;BME280;35415;47.870;16.058;2022-08-19T12:29:27;96855.69;;;27.56;46.59
49515;BME280;35415;47.870;16.058;2022-08-19T12:31:57;96858.41;;;27.52;47.13
49515;BME280;35415;47.870;16.058;2022-08-19T12:34:27;96810.19;;;27.32;47.31
49515;BME280;35415;47.870;16.058;2022-08-19T12:36:57;96837.88;;;27.46;47.33
49515;BME280;35415;47.870;16.058;2022-08-19T12:39:24;96818.88;;;27.34;48.11
49515;BME280;35415;47.870;16.058;2022-08-19T12:41:52;96828.38;;;27.44;48.37
49515;BME280;35415;47.870;16.058;2022-08-19T12:44:19;96823.25;;;27.39;48.07
49515;BME280;35415;47.870;16.058;2022-08-19T12:46:47;96813.72;;;27.33;48.30
49515;BME280;35415;47.870;16.058;2022-08-19T12:49:16;96813.31;;;27.23;51.64
49515;BME280;35415;47.870;16.058;2022-08-19T12:51:43;96790.72;;;27.04;52.06
49515;BME280;35415;47.870;16.058;2022-08-19T12:54:10;96801.28;;;26.91;51.01
49515;BME280;35415;47.870;16.058;2022-08-19T12:56:37;96802.75;;;26.74;53.51
49515;BME280;35415;47.870;16.058;2022-08-19T12:59:04;96805.03;;;26.61;50.73
49515;BME280;35415;47.870;16.058;2022-08-19T13:01:33;96803.22;;;26.35;58.22